createdAt,value
2015-06-14T00:00:10.929Z,0
2015-06-14T00:00:29.539Z,0
2015-06-14T00:00:48.648Z,0
2015-06-14T00:01:07.244Z,0
2015-06-14T00:01:25.634Z,0
2015-06-14T00:01:44.134Z,0
2015-06-14T00:02:02.525Z,0
2015-06-14T00:02:21.152Z,0
2015-06-14T00:02:39.746Z,0
2015-06-14T00:02:58.386Z,0
2015-06-14T00:03:17.045Z,0
2015-06-14T00:03:35.435Z,0
2015-06-14T00:03:53.904Z,0
2015-06-14T00:04:12.451Z,0
2015-06-14T00:04:30.845Z,0
2015-06-14T00:04:49.220Z,0
2015-06-14T00:05:07.627Z,74
2015-06-14T00:05:26.207Z,79
2015-06-14T00:05:44.910Z,71
2015-06-14T00:06:03.472Z,66
2015-06-14T01:15:50.454Z,433
2015-06-14T01:16:08.876Z,431
2015-06-14T01:16:30.594Z,431
2015-06-14T01:16:49.207Z,435
2015-06-14T01:17:07.910Z,439
2015-06-14T01:17:26.410Z,433
2015-06-14T01:17:44.912Z,430
2015-06-14T01:18:03.302Z,434
2015-06-14T01:18:21.771Z,429
2015-06-14T01:18:40.631Z,419
2015-06-14T01:18:58.962Z,449
2015-06-14T01:19:17.368Z,428
2015-06-14T01:19:36.415Z,428
2015-06-14T01:19:55.182Z,424
2015-06-14T01:20:13.870Z,427
2015-06-14T01:20:32.386Z,428
2015-06-14T01:20:50.792Z,428
2015-06-14T01:21:09.185Z,434
2015-06-14T01:21:27.639Z,434
2015-06-14T01:21:46.232Z,435
2015-06-14T01:22:04.656Z,434
2015-06-14T01:22:23.062Z,433
2015-06-14T01:22:41.484Z,440
2015-06-14T01:23:00.047Z,451
2015-06-14T01:23:18.737Z,434
2015-06-14T01:23:37.159Z,426
2015-06-14T01:23:55.534Z,439
2015-06-14T01:24:14.349Z,442
2015-06-14T01:24:32.739Z,445
2015-06-14T01:24:51.208Z,421
2015-06-14T01:25:09.614Z,431
2015-06-14T01:25:28.258Z,431
2015-06-14T01:25:46.695Z,435
2015-06-14T01:26:05.258Z,451
2015-06-14T01:26:23.744Z,443
2015-06-14T01:26:42.166Z,425
2015-06-14T01:27:00.713Z,437
2015-06-14T01:27:19.197Z,436
2015-06-14T01:27:37.638Z,429
2015-06-14T01:27:56.044Z,429
2015-06-14T01:28:14.513Z,440
2015-06-14T01:28:33.062Z,428
2015-06-14T01:28:51.656Z,427
2015-06-14T01:29:10.156Z,433
2015-06-14T01:29:28.702Z,433
2015-06-14T01:29:47.330Z,438
2015-06-14T01:30:05.752Z,442
2015-06-14T01:30:24.299Z,445
2015-06-14T01:30:43.615Z,431
2015-06-14T01:31:02.412Z,440
2015-06-14T01:31:20.912Z,436
2015-06-14T01:31:39.568Z,434
2015-06-14T01:31:58.273Z,430
2015-06-14T01:32:16.882Z,431
2015-06-14T01:32:35.460Z,431
2015-06-14T01:32:53.978Z,439
2015-06-14T01:33:12.384Z,435
2015-06-14T01:33:31.166Z,450
2015-06-14T01:33:49.869Z,441
2015-06-14T01:34:08.325Z,438
2015-06-14T01:34:26.778Z,433
2015-06-14T01:34:45.184Z,441
2015-06-14T01:35:03.624Z,442
2015-06-14T01:35:22.233Z,440
2015-06-14T01:35:40.874Z,440
2015-06-14T01:35:59.452Z,439
2015-06-14T01:36:18.017Z,437
2015-06-14T01:36:36.470Z,436
2015-06-14T01:36:54.861Z,435
2015-06-14T01:37:13.442Z,436
2015-06-14T01:37:31.895Z,428
2015-06-14T01:37:50.505Z,429
2015-06-14T01:38:08.989Z,439
2015-06-14T01:38:27.491Z,425
2015-06-14T01:38:45.913Z,432
2015-06-14T01:39:04.304Z,455
2015-06-14T01:39:22.681Z,424
2015-06-14T01:39:41.524Z,424
2015-06-14T01:40:00.431Z,426
2015-06-14T01:40:18.915Z,427
2015-06-14T01:40:37.371Z,432
2015-06-14T01:40:56.027Z,435
2015-06-14T01:41:14.574Z,434
2015-06-14T01:41:33.154Z,433
2015-06-14T01:41:51.811Z,435
2015-06-14T01:42:10.326Z,440
2015-06-14T01:42:28.764Z,434
2015-06-14T01:42:47.157Z,434
2015-06-14T01:43:05.782Z,426
2015-06-14T01:43:24.392Z,440
2015-06-14T01:43:42.816Z,430
2015-06-14T01:44:01.362Z,434
2015-06-14T01:44:19.956Z,434
2015-06-14T01:44:38.472Z,436
2015-06-14T01:44:56.989Z,432
2015-06-14T01:45:15.443Z,436
2015-06-14T01:45:33.927Z,437
2015-06-14T01:45:52.336Z,433
2015-06-14T01:46:10.930Z,434
2015-06-14T01:46:29.367Z,437
2015-06-14T01:46:47.789Z,437
2015-06-14T01:47:06.417Z,437
2015-06-14T01:47:24.870Z,433
2015-06-14T01:47:43.261Z,435
2015-06-14T01:48:02.013Z,431
2015-06-14T01:48:20.451Z,431
2015-06-14T01:48:38.904Z,434
2015-06-14T01:48:57.388Z,432
2015-06-14T01:49:15.766Z,427
2015-06-14T01:49:34.407Z,424
2015-06-14T01:49:52.875Z,429
2015-06-14T01:50:11.409Z,430
2015-06-14T01:50:30.034Z,433
2015-06-14T01:50:48.565Z,434
2015-06-14T01:51:07.002Z,436
2015-06-14T01:51:25.443Z,440
2015-06-14T01:51:43.990Z,432
2015-06-14T01:52:02.459Z,439
2015-06-14T01:52:20.867Z,439
2015-06-14T01:52:39.289Z,428
2015-06-14T01:52:57.789Z,430
2015-06-14T01:53:16.507Z,424
2015-06-14T01:53:35.306Z,424
2015-06-14T01:53:53.697Z,425
2015-06-14T01:54:12.213Z,426
2015-06-14T01:54:30.669Z,428
2015-06-14T01:54:49.075Z,427
2015-06-14T01:55:07.481Z,429
2015-06-14T01:55:26.200Z,429
2015-06-14T01:55:44.686Z,427
2015-06-14T01:56:03.327Z,429
2015-06-14T01:56:21.889Z,434
2015-06-14T01:56:40.361Z,430
2015-06-14T01:56:58.908Z,429
2015-06-14T01:57:17.377Z,429
2015-06-14T01:57:35.892Z,430
2015-06-14T01:57:54.441Z,431
2015-06-14T01:58:13.363Z,432
2015-06-14T01:58:32.066Z,430
2015-06-14T01:58:50.476Z,434
2015-06-14T01:59:08.976Z,432
2015-06-14T01:59:27.538Z,432
2015-06-14T01:59:46.085Z,432
2015-06-14T02:00:04.650Z,432
2015-06-14T02:00:23.260Z,433
2015-06-14T02:00:41.729Z,435
2015-06-14T02:01:00.340Z,432
2015-06-14T02:01:18.746Z,431
2015-06-14T02:01:37.340Z,433
2015-06-14T02:01:55.856Z,432
2015-06-14T02:02:14.265Z,434
2015-06-14T02:02:32.734Z,434
2015-06-14T02:02:51.155Z,434
2015-06-14T02:03:09.814Z,433
2015-06-14T02:03:28.204Z,432
2015-06-14T02:03:46.657Z,431
2015-06-14T02:04:05.173Z,432
2015-06-14T02:04:23.909Z,436
2015-06-14T02:04:42.300Z,448
2015-06-14T02:05:00.722Z,446
2015-06-14T02:05:19.272Z,433
2015-06-14T02:05:37.803Z,434
2015-06-14T02:05:56.194Z,438
2015-06-14T02:06:14.647Z,433
2015-06-14T02:06:33.211Z,433
2015-06-14T02:06:51.618Z,435
2015-06-14T02:07:10.383Z,435
2015-06-14T02:07:28.808Z,435
2015-06-14T02:07:47.417Z,434
2015-06-14T02:08:05.808Z,435
2015-06-14T02:08:24.402Z,435
2015-06-14T02:08:42.779Z,436
2015-06-14T02:09:01.404Z,435
2015-06-14T02:09:19.873Z,436
2015-06-14T02:09:38.438Z,435
2015-06-14T02:09:56.891Z,439
2015-06-14T02:10:15.579Z,437
2015-06-14T02:10:34.407Z,432
2015-06-14T02:10:52.800Z,446
2015-06-14T02:11:11.254Z,432
2015-06-14T02:11:29.957Z,432
2015-06-14T02:11:48.427Z,435
2015-06-14T02:12:06.881Z,438
2015-06-14T02:12:25.334Z,442
2015-06-14T02:12:43.818Z,441
2015-06-14T02:13:02.398Z,433
2015-06-14T02:13:21.008Z,432
2015-06-14T02:13:39.508Z,433
2015-06-14T02:13:58.088Z,434
2015-06-14T02:14:16.463Z,434
2015-06-14T02:14:34.947Z,434
2015-06-14T02:14:53.494Z,433
2015-06-14T02:15:11.903Z,436
2015-06-14T02:15:30.294Z,435
2015-06-14T02:15:49.325Z,439
2015-06-14T02:16:07.906Z,434
2015-06-14T02:16:26.391Z,438
2015-06-14T02:16:45.125Z,438
2015-06-14T02:17:03.547Z,438
2015-06-14T02:17:21.924Z,438
2015-06-14T02:17:40.486Z,439
2015-06-14T02:17:58.908Z,438
2015-06-14T02:18:17.379Z,437
2015-06-14T02:18:35.754Z,445
2015-06-14T02:18:54.363Z,446
2015-06-14T02:19:12.770Z,495
2015-06-14T02:19:31.320Z,432
2015-06-14T02:19:49.945Z,433
2015-06-14T02:20:08.477Z,436
2015-06-14T02:20:26.854Z,443
2015-06-14T02:20:45.276Z,434
2015-06-14T02:21:03.635Z,436
2015-06-14T02:21:22.041Z,436
2015-06-14T02:21:40.496Z,436
2015-06-14T02:21:58.871Z,437
2015-06-14T02:22:17.262Z,438
2015-06-14T02:22:35.749Z,437
2015-06-14T02:22:54.327Z,444
2015-06-14T02:23:12.765Z,444
2015-06-14T02:23:31.156Z,439
2015-06-14T02:23:49.767Z,436
2015-06-14T02:24:08.142Z,439
2015-06-14T02:24:26.658Z,435
2015-06-14T02:24:45.145Z,442
2015-06-14T02:25:03.567Z,435
2015-06-14T02:25:21.989Z,444
2015-06-14T02:25:40.426Z,450
2015-06-14T02:25:58.897Z,447
2015-06-14T02:26:17.491Z,449
2015-06-14T02:26:36.038Z,451
2015-06-14T02:26:54.602Z,453
2015-06-14T02:27:13.336Z,454
2015-06-14T02:27:31.743Z,447
2015-06-14T02:27:50.196Z,445
2015-06-14T02:28:08.683Z,440
2015-06-14T02:28:26.418Z,439
2015-06-14T02:28:44.793Z,443
2015-06-14T02:29:03.421Z,435
2015-06-14T02:29:22.139Z,440
2015-06-14T02:29:40.671Z,438
2015-06-14T02:29:59.202Z,437
2015-06-14T02:30:17.657Z,440
2015-06-14T02:30:36.110Z,441
2015-06-14T02:30:54.532Z,431
2015-06-14T02:31:12.926Z,442
2015-06-14T02:31:31.504Z,438
2015-06-14T02:31:49.988Z,438
2015-06-14T02:32:08.394Z,435
2015-06-14T02:32:26.693Z,438
2015-06-14T02:32:45.396Z,442
2015-06-14T02:33:03.912Z,437
2015-06-14T02:33:22.367Z,439
2015-06-14T02:33:40.773Z,438
2015-06-14T02:33:59.211Z,439
2015-06-14T02:34:17.601Z,435
2015-06-14T02:34:36.042Z,431
2015-06-14T02:34:54.745Z,438
2015-06-14T02:35:13.198Z,439
2015-06-14T02:35:31.811Z,440
2015-06-14T02:35:50.217Z,453
2015-06-14T02:36:08.795Z,454
2015-06-14T02:36:27.232Z,460
2015-06-14T02:36:45.734Z,459
2015-06-14T02:37:04.125Z,456
2015-06-14T02:37:22.688Z,456
2015-06-14T02:37:41.096Z,459
2015-06-14T02:37:59.486Z,445
2015-06-14T02:38:18.330Z,450
2015-06-14T02:38:36.174Z,460
2015-06-14T02:38:54.786Z,451
2015-06-14T02:39:13.286Z,452
2015-06-14T02:39:31.677Z,447
2015-06-14T02:39:50.116Z,448
2015-06-14T02:40:08.757Z,452
2015-06-14T02:40:27.210Z,445
2015-06-14T02:40:45.851Z,450
2015-06-14T02:41:04.291Z,447
2015-06-14T02:41:22.776Z,449
2015-06-14T02:41:41.276Z,439
2015-06-14T02:41:59.809Z,446
2015-06-14T02:42:18.325Z,448
2015-06-14T02:42:36.934Z,434
2015-06-14T02:42:55.684Z,436
2015-06-14T02:43:14.124Z,437
2015-06-14T02:43:32.718Z,436
2015-06-14T02:43:51.171Z,442
2015-06-14T02:44:09.767Z,445
2015-06-14T02:44:28.283Z,449
2015-06-14T02:44:46.830Z,450
2015-06-14T02:45:05.439Z,451
2015-06-14T02:45:24.286Z,452
2015-06-14T02:45:42.739Z,445
2015-06-14T02:46:01.223Z,448
2015-06-14T02:46:19.694Z,450
2015-06-14T02:46:38.319Z,458
2015-06-14T02:46:56.928Z,451
2015-06-14T02:47:15.335Z,460
2015-06-14T02:47:33.994Z,452
2015-06-14T02:47:52.494Z,445
2015-06-14T02:48:11.056Z,458
2015-06-14T02:48:29.636Z,456
2015-06-14T02:48:48.152Z,450
2015-06-14T02:49:06.746Z,471
2015-06-14T02:49:25.246Z,461
2015-06-14T02:49:43.858Z,469
2015-06-14T02:50:02.686Z,457
2015-06-14T02:50:21.311Z,454
2015-06-14T02:50:39.766Z,441
2015-06-14T02:50:58.329Z,450
2015-06-14T02:51:16.876Z,461
2015-06-14T02:51:35.329Z,453
2015-06-14T02:51:53.222Z,436
2015-06-14T02:52:11.612Z,427
2015-06-14T02:52:30.003Z,439
2015-06-14T02:52:48.554Z,452
2015-06-14T02:53:06.991Z,441
2015-06-14T02:53:25.366Z,404
2015-06-14T02:53:44.085Z,464
2015-06-14T02:54:02.634Z,441
2015-06-14T02:54:21.431Z,450
2015-06-14T02:54:39.931Z,442
2015-06-14T02:54:58.714Z,439
2015-06-14T02:55:17.105Z,452
2015-06-14T02:55:35.605Z,464
2015-06-14T02:55:54.058Z,462
2015-06-14T02:56:12.825Z,488
2015-06-14T02:56:31.325Z,452
2015-06-14T02:56:49.950Z,444
2015-06-14T02:57:08.438Z,455
2015-06-14T02:57:26.906Z,521
2015-06-14T02:57:45.578Z,516
2015-06-14T02:58:04.156Z,447
2015-06-14T02:58:22.644Z,467
2015-06-14T02:58:41.425Z,458
2015-06-14T02:59:00.128Z,457
2015-06-14T02:59:18.521Z,435
2015-06-14T02:59:36.927Z,435
2015-06-14T02:59:55.458Z,453
2015-06-14T03:00:13.865Z,463
2015-06-14T03:00:32.321Z,471
2015-06-14T03:00:53.727Z,459
2015-06-14T03:01:12.383Z,459
2015-06-14T03:01:31.026Z,451
2015-06-14T03:01:49.682Z,456
2015-06-14T03:02:08.370Z,466
2015-06-14T03:02:26.826Z,468
2015-06-14T03:02:45.201Z,445
2015-06-14T03:03:03.638Z,437
2015-06-14T03:03:22.154Z,465
2015-06-14T03:03:40.625Z,478
2015-06-14T03:03:59.046Z,494
2015-06-14T03:04:17.531Z,483
2015-06-14T03:04:35.955Z,482
2015-06-14T03:04:54.455Z,490
2015-06-14T03:05:12.908Z,487
2015-06-14T03:05:31.314Z,486
2015-06-14T03:05:49.895Z,489
2015-06-14T03:06:08.442Z,480
2015-06-14T03:06:26.911Z,484
2015-06-14T03:06:45.461Z,481
2015-06-14T03:07:04.008Z,481
2015-06-14T03:07:22.492Z,483
2015-06-14T03:07:40.898Z,487
2015-06-14T03:07:59.494Z,496
2015-06-14T03:08:18.135Z,486
2015-06-14T03:08:36.525Z,491
2015-06-14T03:08:54.918Z,486
2015-06-14T03:09:13.449Z,472
2015-06-14T03:09:32.230Z,472
2015-06-14T03:09:50.808Z,492
2015-06-14T03:10:09.265Z,481
2015-06-14T03:10:27.874Z,474
2015-06-14T03:10:46.358Z,484
2015-06-14T03:11:04.829Z,482
2015-06-14T03:11:23.235Z,467
2015-06-14T03:11:41.767Z,460
2015-06-14T03:11:59.532Z,473
2015-06-14T03:12:18.129Z,471
2015-06-14T03:12:36.520Z,478
2015-06-14T03:12:55.113Z,480
2015-06-14T03:13:13.568Z,489
2015-06-14T03:13:32.131Z,496
2015-06-14T03:13:50.568Z,497
2015-06-14T03:14:08.975Z,506
2015-06-14T03:14:27.445Z,496
2015-06-14T03:14:45.992Z,501
2015-06-14T03:15:04.399Z,514
2015-06-14T03:15:23.073Z,517
2015-06-14T03:15:41.698Z,507
2015-06-14T03:16:00.152Z,511
2015-06-14T03:16:18.542Z,512
2015-06-14T03:16:37.123Z,518
2015-06-14T03:16:55.592Z,517
2015-06-14T03:17:14.139Z,523
2015-06-14T03:17:32.689Z,530
2015-06-14T03:17:51.408Z,533
2015-06-14T03:18:09.939Z,532
2015-06-14T03:18:28.329Z,538
2015-06-14T03:18:46.910Z,536
2015-06-14T03:19:05.285Z,537
2015-06-14T03:19:23.785Z,533
2015-06-14T03:19:42.271Z,534
2015-06-14T03:20:00.740Z,528
2015-06-14T03:20:19.240Z,536
2015-06-14T03:20:37.771Z,536
2015-06-14T03:20:56.149Z,539
2015-06-14T03:21:14.618Z,542
2015-06-14T03:21:33.102Z,549
2015-06-14T03:21:51.589Z,551
2015-06-14T03:22:10.199Z,555
2015-06-14T03:22:28.574Z,561
2015-06-14T03:22:46.980Z,559
2015-06-14T03:23:05.357Z,570
2015-06-14T03:23:23.873Z,569
2015-06-14T03:23:42.341Z,572
2015-06-14T03:24:00.828Z,578
2015-06-14T03:24:19.234Z,575
2015-06-14T03:24:38.062Z,582
2015-06-14T03:24:56.500Z,574
2015-06-14T03:25:15.189Z,575
2015-06-14T03:25:33.674Z,569
2015-06-14T03:25:52.174Z,600
2015-06-14T03:26:10.568Z,617
2015-06-14T03:26:29.099Z,621
2015-06-14T03:26:47.568Z,629
2015-06-14T03:27:05.990Z,632
2015-06-14T03:27:24.367Z,638
2015-06-14T03:27:42.851Z,635
2015-06-14T03:28:01.305Z,637
2015-06-14T03:28:19.713Z,636
2015-06-14T03:28:38.228Z,635
2015-06-14T03:28:56.697Z,624
2015-06-14T03:29:15.072Z,627
2015-06-14T03:29:33.528Z,632
2015-06-14T03:29:51.997Z,635
2015-06-14T03:30:10.544Z,663
2015-06-14T03:30:28.937Z,666
2015-06-14T03:30:47.405Z,670
2015-06-14T03:31:05.765Z,668
2015-06-14T03:31:24.249Z,662
2015-06-14T03:31:42.627Z,668
2015-06-14T03:32:01.158Z,666
2015-06-14T03:32:19.815Z,658
2015-06-14T03:32:38.254Z,650
2015-06-14T03:32:56.645Z,653
2015-06-14T03:33:15.160Z,658
2015-06-14T03:33:33.660Z,656
2015-06-14T03:33:52.179Z,667
2015-06-14T03:34:10.585Z,659
2015-06-14T03:34:29.116Z,669
2015-06-14T03:34:47.556Z,674
2015-06-14T03:35:06.040Z,679
2015-06-14T03:35:24.493Z,679
2015-06-14T03:35:43.056Z,688
2015-06-14T03:36:01.511Z,691
2015-06-14T03:36:19.902Z,679
2015-06-14T03:36:38.355Z,678
2015-06-14T03:36:56.905Z,685
2015-06-14T03:37:15.373Z,687
2015-06-14T03:37:33.889Z,690
2015-06-14T03:37:52.420Z,693
2015-06-14T03:38:10.860Z,694
2015-06-14T03:38:28.641Z,697
2015-06-14T03:38:47.032Z,702
2015-06-14T03:39:05.488Z,706
2015-06-14T03:39:23.941Z,708
2015-06-14T03:39:42.347Z,711
2015-06-14T03:40:00.863Z,713
2015-06-14T03:40:19.288Z,715
2015-06-14T03:40:37.710Z,720
2015-06-14T03:40:56.210Z,720
2015-06-14T03:41:14.883Z,725
2015-06-14T03:41:33.258Z,727
2015-06-14T03:41:51.649Z,729
2015-06-14T03:42:10.087Z,729
2015-06-14T03:42:28.558Z,729
2015-06-14T03:42:47.090Z,737
2015-06-14T03:43:05.527Z,736
2015-06-14T03:43:24.045Z,736
2015-06-14T03:43:42.576Z,738
2015-06-14T03:44:00.967Z,742
2015-06-14T03:44:19.373Z,742
2015-06-14T03:44:37.844Z,744
2015-06-14T03:44:56.375Z,741
2015-06-14T03:45:14.812Z,744
2015-06-14T03:45:33.455Z,748
2015-06-14T03:45:54.861Z,748
2015-06-14T03:46:13.283Z,748
2015-06-14T03:46:31.678Z,748
2015-06-14T03:46:50.240Z,748
2015-06-14T03:47:08.631Z,748
2015-06-14T03:47:27.021Z,748
2015-06-14T03:47:45.461Z,748
2015-06-14T03:48:03.930Z,748
2015-06-14T03:48:21.773Z,748
2015-06-14T03:48:40.182Z,748
2015-06-14T03:48:58.588Z,748
2015-06-14T03:49:17.072Z,748
2015-06-14T03:49:35.479Z,748
2015-06-14T03:49:53.982Z,748
2015-06-14T03:50:12.388Z,748
2015-06-14T03:50:30.763Z,748
2015-06-14T03:50:49.234Z,748
2015-06-14T03:51:07.843Z,748
2015-06-14T03:51:26.218Z,748
2015-06-14T03:51:44.640Z,748
2015-06-14T03:52:03.079Z,748
2015-06-14T03:52:21.673Z,749
2015-06-14T03:52:40.126Z,749
2015-06-14T03:52:58.551Z,749
2015-06-14T03:53:17.270Z,749
2015-06-14T03:53:35.989Z,749
2015-06-14T03:53:54.582Z,748
2015-06-14T03:54:13.053Z,748
2015-06-14T03:54:31.537Z,749
2015-06-14T03:54:49.928Z,749
2015-06-14T03:55:08.322Z,749
2015-06-14T03:55:26.728Z,749
2015-06-14T03:55:45.119Z,749
2015-06-14T03:56:03.837Z,749
2015-06-14T03:56:22.339Z,749
2015-06-14T03:56:40.714Z,749
2015-06-14T03:56:59.355Z,749
2015-06-14T03:57:17.764Z,749
2015-06-14T03:57:36.249Z,749
2015-06-14T03:57:54.764Z,749
2015-06-14T03:58:13.295Z,749
2015-06-14T03:58:31.627Z,749
2015-06-14T03:58:50.048Z,749
2015-06-14T03:59:08.517Z,749
2015-06-14T03:59:26.924Z,749
2015-06-14T03:59:45.518Z,749
2015-06-14T04:00:04.018Z,749
2015-06-14T04:00:22.424Z,749
2015-06-14T04:00:40.912Z,749
2015-06-14T04:00:59.412Z,749
2015-06-14T04:01:17.818Z,749
2015-06-14T04:01:36.384Z,749
2015-06-14T04:01:55.024Z,749
2015-06-14T04:02:13.462Z,749
2015-06-14T04:02:32.024Z,749
2015-06-14T04:02:50.589Z,749
2015-06-14T04:03:09.011Z,749
2015-06-14T04:03:27.557Z,749
2015-06-14T04:03:45.934Z,749
2015-06-14T04:04:04.434Z,749
2015-06-14T04:04:23.028Z,749
2015-06-14T04:04:41.528Z,749
2015-06-14T04:05:00.328Z,749
2015-06-14T04:05:18.891Z,749
2015-06-14T04:05:37.719Z,749
2015-06-14T04:05:56.455Z,749
2015-06-14T04:06:14.830Z,749
2015-06-14T04:06:33.221Z,749
2015-06-14T04:06:51.674Z,749
2015-06-14T04:07:10.381Z,749
2015-06-14T04:07:28.865Z,749
2015-06-14T04:07:47.256Z,749
2015-06-14T04:08:05.664Z,749
2015-06-14T04:08:24.242Z,749
2015-06-14T04:08:42.774Z,749
2015-06-14T04:09:01.258Z,749
2015-06-14T04:09:20.073Z,749
2015-06-14T04:09:38.573Z,749
2015-06-14T04:09:56.964Z,749
2015-06-14T04:10:15.544Z,749
2015-06-14T04:10:34.357Z,749
2015-06-14T04:10:52.997Z,749
2015-06-14T04:11:11.419Z,749
2015-06-14T04:11:30.218Z,749
2015-06-14T04:11:48.906Z,749
2015-06-14T04:12:07.421Z,749
2015-06-14T04:12:25.830Z,749
2015-06-14T04:12:44.252Z,749
2015-06-14T04:13:02.721Z,749
2015-06-14T04:13:21.127Z,749
2015-06-14T04:13:39.849Z,749
2015-06-14T04:13:58.287Z,749
2015-06-14T04:14:17.021Z,749
2015-06-14T04:14:35.459Z,749
2015-06-14T04:14:53.897Z,749
2015-06-14T04:15:12.444Z,750
2015-06-14T04:15:30.866Z,749
2015-06-14T04:15:49.337Z,750
2015-06-14T04:16:07.947Z,750
2015-06-14T04:16:26.572Z,749
2015-06-14T04:16:44.981Z,750
2015-06-14T04:17:03.465Z,750
2015-06-14T04:17:22.215Z,750
2015-06-14T04:17:40.903Z,750
2015-06-14T04:17:59.421Z,750
2015-06-14T04:18:17.999Z,750
2015-06-14T04:18:36.374Z,750
2015-06-14T04:18:54.766Z,750
2015-06-14T04:19:13.360Z,750
2015-06-14T04:19:31.907Z,750
2015-06-14T04:19:50.485Z,750
2015-06-14T04:20:09.254Z,750
2015-06-14T04:20:27.629Z,750
2015-06-14T04:20:46.051Z,750
2015-06-14T04:21:04.443Z,750
2015-06-14T04:21:23.271Z,750
2015-06-14T04:21:41.724Z,750
2015-06-14T04:22:00.240Z,750
2015-06-14T04:22:18.837Z,750
2015-06-14T04:22:37.321Z,750
2015-06-14T04:22:55.696Z,750
2015-06-14T04:23:14.354Z,750
2015-06-14T04:23:32.776Z,750
2015-06-14T04:23:51.276Z,750
2015-06-14T04:24:09.667Z,750
2015-06-14T04:24:28.265Z,750
2015-06-14T04:24:46.640Z,750
2015-06-14T04:25:05.124Z,750
2015-06-14T04:25:23.595Z,750
2015-06-14T04:25:42.189Z,750
2015-06-14T04:26:00.704Z,750
2015-06-14T04:26:19.110Z,750
2015-06-14T04:26:37.753Z,750
2015-06-14T04:26:56.472Z,750
2015-06-14T04:27:14.909Z,750
2015-06-14T04:27:33.364Z,750
2015-06-14T04:27:51.802Z,750
2015-06-14T04:28:10.333Z,750
2015-06-14T04:28:28.802Z,750
2015-06-14T04:28:47.461Z,750
2015-06-14T04:29:06.102Z,750
2015-06-14T04:29:24.492Z,750
2015-06-14T04:29:43.073Z,750
2015-06-14T04:30:01.604Z,750
2015-06-14T04:30:19.979Z,750
2015-06-14T04:30:38.526Z,750
2015-06-14T04:30:56.997Z,750
2015-06-14T04:31:15.404Z,750
2015-06-14T04:31:33.716Z,750
2015-06-14T04:31:52.374Z,750
2015-06-14T04:32:10.796Z,750
2015-06-14T04:32:29.203Z,750
2015-06-14T04:32:47.796Z,750
2015-06-14T04:33:06.502Z,750
2015-06-14T04:33:25.284Z,750
2015-06-14T04:33:43.706Z,750
2015-06-14T04:34:02.334Z,750
2015-06-14T04:34:20.943Z,750
2015-06-14T04:34:39.521Z,750
2015-06-14T04:34:58.162Z,750
2015-06-14T04:35:16.570Z,750
2015-06-14T04:35:35.226Z,750
2015-06-14T04:35:53.882Z,750
2015-06-14T04:36:12.463Z,750
2015-06-14T04:36:30.838Z,750
2015-06-14T04:36:49.306Z,750
2015-06-14T04:37:07.994Z,750
2015-06-14T04:37:26.387Z,750
2015-06-14T04:37:44.856Z,750
2015-06-14T04:38:03.809Z,750
2015-06-14T04:38:22.186Z,750
2015-06-14T04:38:40.749Z,750
2015-06-14T04:38:59.249Z,750
2015-06-14T04:39:17.686Z,750
2015-06-14T04:39:36.127Z,750
2015-06-14T04:39:54.611Z,750
2015-06-14T04:40:13.252Z,750
2015-06-14T04:40:31.644Z,751
2015-06-14T04:40:50.066Z,750
2015-06-14T04:41:08.457Z,751
2015-06-14T04:41:26.926Z,751
2015-06-14T04:41:45.647Z,751
2015-06-14T04:42:04.038Z,751
2015-06-14T04:42:22.476Z,751
2015-06-14T04:42:41.087Z,751
2015-06-14T04:42:59.743Z,751
2015-06-14T04:43:18.196Z,751
2015-06-14T04:43:36.712Z,751
2015-06-14T04:43:55.121Z,751
2015-06-14T04:44:13.621Z,751
2015-06-14T04:44:32.059Z,751
2015-06-14T04:44:50.764Z,751
2015-06-14T04:45:09.233Z,751
2015-06-14T04:45:27.654Z,751
2015-06-14T04:45:46.358Z,751
2015-06-14T04:46:04.798Z,751
2015-06-14T04:46:23.251Z,751
2015-06-14T04:46:42.001Z,751
2015-06-14T04:47:00.472Z,751
2015-06-14T04:47:19.097Z,751
2015-06-14T04:47:37.550Z,751
2015-06-14T04:47:56.409Z,751
2015-06-14T04:48:14.881Z,751
2015-06-14T04:48:33.319Z,751
2015-06-14T04:48:51.834Z,751
2015-06-14T04:49:10.493Z,751
2015-06-14T04:49:28.930Z,751
2015-06-14T04:49:47.352Z,751
2015-06-14T04:50:06.039Z,751
2015-06-14T04:50:24.480Z,751
2015-06-14T04:50:42.902Z,751
2015-06-14T04:51:01.417Z,751
2015-06-14T04:51:19.810Z,751
2015-06-14T04:51:38.419Z,751
2015-06-14T04:51:56.951Z,751
2015-06-14T04:52:15.623Z,751
2015-06-14T04:52:34.422Z,751
2015-06-14T04:52:53.016Z,751
2015-06-14T04:53:11.579Z,751
2015-06-14T04:53:30.065Z,751
2015-06-14T04:53:48.487Z,751
2015-06-14T04:54:07.143Z,751
2015-06-14T04:54:25.799Z,751
2015-06-14T04:54:44.209Z,751
2015-06-14T04:55:02.756Z,751
2015-06-14T04:55:21.302Z,751
2015-06-14T04:55:39.867Z,751
2015-06-14T04:55:58.320Z,751
2015-06-14T04:56:16.742Z,751
2015-06-14T04:56:35.133Z,751
2015-06-14T04:56:53.761Z,751
2015-06-14T04:57:12.307Z,751
2015-06-14T04:57:30.761Z,751
2015-06-14T04:57:49.200Z,751
2015-06-14T04:58:07.575Z,751
2015-06-14T04:58:26.138Z,751
2015-06-14T04:58:44.544Z,751
2015-06-14T04:59:02.953Z,751
2015-06-14T04:59:21.453Z,751
2015-06-14T04:59:39.984Z,751
2015-06-14T04:59:58.518Z,751
2015-06-14T05:00:17.002Z,751
2015-06-14T05:00:35.393Z,751
2015-06-14T05:00:53.971Z,751
2015-06-14T05:01:12.520Z,751
2015-06-14T05:01:30.941Z,751
2015-06-14T05:01:49.457Z,751
2015-06-14T05:02:08.038Z,751
2015-06-14T05:02:26.460Z,751
2015-06-14T05:02:45.179Z,751
2015-06-14T05:03:03.804Z,751
2015-06-14T05:03:22.447Z,751
2015-06-14T05:03:40.901Z,751
2015-06-14T05:03:59.572Z,751
2015-06-14T05:04:17.966Z,751
2015-06-14T05:04:36.513Z,751
2015-06-14T05:04:54.919Z,752
2015-06-14T05:05:13.654Z,752
2015-06-14T05:05:32.093Z,752
2015-06-14T05:05:50.609Z,752
2015-06-14T05:06:09.156Z,752
2015-06-14T05:06:27.658Z,752
2015-06-14T05:06:46.204Z,752
2015-06-14T05:07:04.908Z,752
2015-06-14T05:07:23.283Z,752
2015-06-14T05:07:41.707Z,752
2015-06-14T05:08:00.114Z,752
2015-06-14T05:08:18.957Z,752
2015-06-14T05:08:37.397Z,752
2015-06-14T05:08:56.022Z,752
2015-06-14T05:09:14.413Z,752
2015-06-14T05:09:33.084Z,752
2015-06-14T05:09:51.853Z,752
2015-06-14T05:10:10.369Z,752
2015-06-14T05:10:28.978Z,752
2015-06-14T05:10:47.511Z,752
2015-06-14T05:11:06.058Z,752
2015-06-14T05:11:24.480Z,752
2015-06-14T05:11:42.949Z,752
2015-06-14T05:12:01.796Z,752
2015-06-14T05:12:20.249Z,752
2015-06-14T05:12:38.796Z,752
2015-06-14T05:12:57.266Z,752
2015-06-14T05:13:15.688Z,752
2015-06-14T05:13:34.063Z,752
2015-06-14T05:13:52.532Z,752
2015-06-14T05:14:10.941Z,753
2015-06-14T05:14:29.472Z,752
2015-06-14T05:14:47.972Z,752
2015-06-14T05:15:06.365Z,752
2015-06-14T05:15:25.115Z,752
2015-06-14T05:15:43.818Z,752
2015-06-14T05:16:02.303Z,753
2015-06-14T05:16:20.727Z,753
2015-06-14T05:16:39.274Z,753
2015-06-14T05:16:57.727Z,753
2015-06-14T05:17:16.229Z,753
2015-06-14T05:17:34.651Z,753
2015-06-14T05:17:53.104Z,753
2015-06-14T05:18:11.683Z,753
2015-06-14T05:18:30.061Z,753
2015-06-14T05:18:48.561Z,753
2015-06-14T05:19:06.982Z,753
2015-06-14T05:19:25.375Z,753
2015-06-14T05:19:44.000Z,753
2015-06-14T05:20:02.516Z,753
2015-06-14T05:20:21.094Z,753
2015-06-14T05:20:39.784Z,753
2015-06-14T05:20:58.409Z,753
2015-06-14T05:21:16.847Z,753
2015-06-14T05:21:35.271Z,753
2015-06-14T05:21:53.755Z,753
2015-06-14T05:22:12.239Z,753
2015-06-14T05:22:30.630Z,753
2015-06-14T05:22:49.024Z,753
2015-06-14T05:23:07.461Z,753
2015-06-14T05:23:26.133Z,753
2015-06-14T05:23:44.823Z,753
2015-06-14T05:24:03.229Z,753
2015-06-14T05:24:21.932Z,753
2015-06-14T05:24:40.557Z,753
2015-06-14T05:24:59.107Z,753